»·PEaware :: N134MW KCRQ-KPSP

N134MW :: KCRQ-KPSP

FLIGHT INFORMATION

Flight Status: Arrived
Operator: Privately registered:
United States
More flights under this callsign
Pilot: Mark W. (25924)
Aircraft: Unknown
(DA62)
More flights by this aircraft type
Origin: KCRQ McClellan-Palomar
United States
Destination: KPSP Palm Springs Intl
United States
More flights between these airports :: More routes between these airports
Route: JLI TRM
File this flight plan on PilotEdge
Remarks: CAT-05 Training flight
Altitude:
(Current/Filed)
7,500ft
Speed:
(Current/Filed)
150kts
Departed: 10-Oct-19 06:06 PM
Arrived: 10-Oct-19 06:47 PM
Distance/Time
Traveled:
57nm/0:41
Distance/Time
To Go:
Arrived

Flight Plot

Page will automatically refresh every two minutes.


Map Options




Map Legend


Flown Route
Filed Route
Departure Airport
Arrival Airport
Navaid (VOR, NDB)
Fix

Horizontal Profiles

Position Reports

Time Latitude Longitude Heading Altitude Ground
Speed
10-Oct-19 17:59 33.126639 -117.275226 167 335ft 0kts
10-Oct-19 18:00 33.126639 -117.275226 167 335ft 0kts
10-Oct-19 18:01 33.126639 -117.275226 167 335ft 0kts
10-Oct-19 18:02 33.126639 -117.275225 167 335ft 0kts
10-Oct-19 18:03 33.128516 -117.273268 81 335ft 14kts
10-Oct-19 18:04 33.128715 -117.272514 15 335ft 0kts
10-Oct-19 18:05 33.128830 -117.276601 261 335ft 68kts
10-Oct-19 18:06 33.125835 -117.304332 320 1092ft 111kts
10-Oct-19 18:07 33.143983 -117.288059 97 2107ft 120kts
10-Oct-19 18:08 33.141365 -117.247672 95 3061ft 123kts
10-Oct-19 18:09 33.140257 -117.207287 93 3946ft 123kts
10-Oct-19 18:10 33.139863 -117.166584 92 4847ft 123kts
10-Oct-19 18:11 33.139790 -117.125775 92 5729ft 123kts
10-Oct-19 18:12 33.139853 -117.085313 92 6584ft 121kts
10-Oct-19 18:13 33.139946 -117.045418 90 7426ft 120kts
10-Oct-19 18:14 33.140088 -116.999306 88 7509ft 154kts
10-Oct-19 18:15 33.140261 -116.950246 86 7506ft 159kts
10-Oct-19 18:16 33.140418 -116.896881 84 7508ft 162kts
10-Oct-19 18:17 33.140619 -116.842369 84 7485ft 166kts
10-Oct-19 18:18 33.140777 -116.786984 84 7481ft 166kts
10-Oct-19 18:19 33.140875 -116.731734 84 7482ft 166kts
10-Oct-19 18:20 33.140951 -116.676494 84 7482ft 166kts
10-Oct-19 18:21 33.141013 -116.621233 84 7482ft 166kts
10-Oct-19 18:22 33.149219 -116.569187 51 7488ft 160kts
10-Oct-19 18:23 33.179429 -116.530624 38 7488ft 158kts
10-Oct-19 18:24 33.212232 -116.499277 33 7493ft 159kts
10-Oct-19 18:25 33.247773 -116.468849 31 7502ft 159kts
10-Oct-19 18:26 33.284235 -116.438919 30 7511ft 159kts
10-Oct-19 18:27 33.321108 -116.409082 29 7518ft 160kts
10-Oct-19 18:28 33.358125 -116.379314 29 7518ft 161kts
10-Oct-19 18:29 33.395158 -116.349508 29 7518ft 160kts
10-Oct-19 18:30 33.432041 -116.319186 30 7516ft 158kts
10-Oct-19 18:31 33.465776 -116.291659 28 7470ft 130kts
10-Oct-19 18:32 33.497649 -116.265992 29 6778ft 142kts
10-Oct-19 18:33 33.530043 -116.239816 29 6162ft 142kts
10-Oct-19 18:34 33.562321 -116.213757 29 5590ft 139kts
10-Oct-19 18:35 33.594323 -116.187864 29 5021ft 138kts
10-Oct-19 18:36 33.621281 -116.202757 296 4498ft 149kts
10-Oct-19 18:37 33.645110 -116.242695 311 3936ft 149kts
10-Oct-19 18:38 33.670428 -116.281374 311 3929ft 146kts
10-Oct-19 18:39 33.693039 -116.322595 296 3464ft 155kts
10-Oct-19 18:40 33.709501 -116.370515 296 2698ft 154kts
10-Oct-19 18:41 33.728208 -116.411151 312 2451ft 119kts
10-Oct-19 18:42 33.754704 -116.442559 324 1792ft 147kts
10-Oct-19 18:43 33.788281 -116.470044 330 1298ft 116kts
10-Oct-19 18:44 33.810462 -116.490190 328 650ft 88kts
10-Oct-19 18:45 33.828786 -116.506580 332 422ft 60kts
10-Oct-19 18:46 33.834400 -116.510684 49 438ft 0kts
10-Oct-19 18:47 33.835297 -116.508724 112 435ft 2kts
10-Oct-19 18:48 33.834938 -116.508138 179 433ft 12kts
10-Oct-19 18:49 33.830998 -116.504977 149 422ft 31kts
10-Oct-19 18:50 33.824956 -116.499549 134 403ft 17kts

Navigation Log

Ident Type
Flight plan parsing failed, navigation log unavailable